KPOC/POC METAR and TAF weather

Enter ICAO airport designator
Station Type Date Time Source
KPOC METAR 2023/02/06 18:47 UTC NOAA

KPOC 061847Z 24010KT 10SM CLR 14/07 A3023


Station Type Date Time Source
KPOC Decoded METAR 2023/02/06 18:47 UTC NOAA

La Verne / Brackett, CA, United States (KPOC) 34-06N 117-47W
Feb 06, 2023 - 01:47 PM EST / 2023.02.06 1847 UTC
Wind: from the WSW (240 degrees) at 12 MPH (10 KT):0
Visibility: 10 mile(s):0
Sky conditions: clear
Temperature: 57 F (14 C)
Dew Point: 44 F (7 C)
Relative Humidity: 62%
Pressure (altimeter): 30.23 in. Hg (1023 hPa)
ob: KPOC 061847Z 24010KT 10SM CLR 14/07 A3023
cycle: 19

Station Type Date Time Source
KPOC TAF UTC NOAA

Error!

Example: see airport list